This is the latest recevied weather packets stored in our database for station/object XE1E-15. If no packets are shown the sender has not sent any weather packets the latest 10 day(s).
| Time | Temp. | Humidity | Pressure | Rain* | Wind** | Luminosity | Snow |
|---|---|---|---|---|---|---|---|
| 1777706147 | 26.11° C | 43% | 1021.2 hPa | - | - | - | - |
| 1777705187 | 26.11° C | 42% | 1021.2 hPa | - | - | - | - |
| 1777704227 | 26.67° C | 42% | 1021.2 hPa | - | - | - | - |
| 1777703267 | 26.11° C | 41% | 1021.2 hPa | - | - | - | - |
| 1777702307 | 26.67° C | 41% | 1021.2 hPa | - | - | - | - |
| 1777701347 | 26.67° C | 41% | 1021.3 hPa | - | - | - | - |
| 1777700386 | 26.67° C | 41% | 1021.3 hPa | - | - | - | - |
| 1777699426 | 26.67° C | 41% | 1021.4 hPa | - | - | - | - |
| 1777698466 | 26.67° C | 41% | 1021.4 hPa | - | - | - | - |
| 1777697552 | 27.22° C | 40% | 1021.5 hPa | - | - | - | - |
| 1777697506 | 27.22° C | 40% | 1021.5 hPa | - | - | - | - |
| 1777696577 | 27.22° C | 40% | 1021.3 hPa | - | - | - | - |
| 1777696546 | 27.22° C | 40% | 1021.3 hPa | - | - | - | - |
| 1777695721 | 27.22° C | 38% | 1021.2 hPa | - | - | - | - |
| 1777695586 | 27.22° C | 38% | 1021.2 hPa | - | - | - | - |
| 1777694626 | 27.22° C | 42% | 1021 hPa | - | - | - | - |
| 1777693666 | 27.22° C | 42% | 1021 hPa | - | - | - | - |
| 1777692706 | 26.67° C | 43% | 1020.9 hPa | - | - | - | - |
| 1777691746 | 27.78° C | 40% | 1020.7 hPa | - | - | - | - |
| 1777690785 | 26.67° C | 45% | 1020.4 hPa | - | - | - | - |
| 1777689825 | 27.78° C | 37% | 1020.1 hPa | - | - | - | - |
| 1777688865 | 27.22° C | 40% | 1019.8 hPa | - | - | - | - |
| 1777672065 | 31.67° C | 21% | 1017 hPa | - | - | - | - |
| 1777670145 | 32.22° C | 20% | 1017.2 hPa | - | - | - | - |
| 1777667264 | 33.89° C | 20% | 1017.9 hPa | - | - | - | - |
* Rain since midnight (hover to see other rain measurements)
** Current wind speed in m/s (hover to see current wind gust speed)